sensor_id;sensor_type;location;lat;lon;timestamp;temperature;humidity
31809;DHT22;18379;48.208;-1.518;2023-11-21T00:04:42;12.40;99.90
31809;DHT22;18379;48.208;-1.518;2023-11-21T00:09:42;12.40;99.90
31809;DHT22;18379;48.208;-1.518;2023-11-21T00:14:43;12.40;99.90
31809;DHT22;18379;48.208;-1.518;2023-11-21T00:19:44;12.40;99.90
31809;DHT22;18379;48.208;-1.518;2023-11-21T00:24:44;12.40;99.90
31809;DHT22;18379;48.208;-1.518;2023-11-21T00:29:45;12.40;99.90
31809;DHT22;18379;48.208;-1.518;2023-11-21T00:34:45;12.20;99.90
31809;DHT22;18379;48.208;-1.518;2023-11-21T00:39:46;12.20;99.90
31809;DHT22;18379;48.208;-1.518;2023-11-21T00:44:47;12.20;99.90
31809;DHT22;18379;48.208;-1.518;2023-11-21T00:49:47;12.10;99.90
31809;DHT22;18379;48.208;-1.518;2023-11-21T00:54:49;12.10;99.90
31809;DHT22;18379;48.208;-1.518;2023-11-21T00:59:50;12.10;99.90
31809;DHT22;18379;48.208;-1.518;2023-11-21T01:04:50;12.20;99.90
31809;DHT22;18379;48.208;-1.518;2023-11-21T01:09:51;12.20;99.90
31809;DHT22;18379;48.208;-1.518;2023-11-21T01:14:52;12.00;99.90
31809;DHT22;18379;48.208;-1.518;2023-11-21T01:19:52;12.00;99.90
31809;DHT22;18379;48.208;-1.518;2023-11-21T01:24:53;12.00;99.90
31809;DHT22;18379;48.208;-1.518;2023-11-21T01:29:54;12.00;99.90
31809;DHT22;18379;48.208;-1.518;2023-11-21T01:34:54;12.10;99.90
31809;DHT22;18379;48.208;-1.518;2023-11-21T01:39:55;12.10;99.90
31809;DHT22;18379;48.208;-1.518;2023-11-21T01:44:56;11.90;99.90
31809;DHT22;18379;48.208;-1.518;2023-11-21T01:49:57;11.90;99.90
31809;DHT22;18379;48.208;-1.518;2023-11-21T01:54:59;11.90;99.90
31809;DHT22;18379;48.208;-1.518;2023-11-21T02:00:02;11.90;99.90
31809;DHT22;18379;48.208;-1.518;2023-11-21T02:05:16;11.90;99.90
31809;DHT22;18379;48.208;-1.518;2023-11-21T02:10:19;11.80;99.90
31809;DHT22;18379;48.208;-1.518;2023-11-21T02:15:23;11.60;99.90
31809;DHT22;18379;48.208;-1.518;2023-11-21T02:20:27;11.60;99.90
31809;DHT22;18379;48.208;-1.518;2023-11-21T02:25:31;11.40;99.90
31809;DHT22;18379;48.208;-1.518;2023-11-21T02:30:37;11.40;99.90
31809;DHT22;18379;48.208;-1.518;2023-11-21T02:35:38;11.40;99.90
31809;DHT22;18379;48.208;-1.518;2023-11-21T02:40:38;11.30;99.90
31809;DHT22;18379;48.208;-1.518;2023-11-21T02:45:39;11.30;99.90
31809;DHT22;18379;48.208;-1.518;2023-11-21T02:50:42;11.30;99.90
31809;DHT22;18379;48.208;-1.518;2023-11-21T02:55:43;11.30;99.90
31809;DHT22;18379;48.208;-1.518;2023-11-21T03:00:44;11.40;99.90
31809;DHT22;18379;48.208;-1.518;2023-11-21T03:05:44;11.40;99.90
31809;DHT22;18379;48.208;-1.518;2023-11-21T03:10:45;11.20;99.90
31809;DHT22;18379;48.208;-1.518;2023-11-21T03:15:45;11.10;99.90
31809;DHT22;18379;48.208;-1.518;2023-11-21T03:20:46;11.10;99.90
31809;DHT22;18379;48.208;-1.518;2023-11-21T03:25:47;11.10;99.90
31809;DHT22;18379;48.208;-1.518;2023-11-21T03:30:47;11.10;99.90
31809;DHT22;18379;48.208;-1.518;2023-11-21T03:35:48;11.10;99.90
31809;DHT22;18379;48.208;-1.518;2023-11-21T03:40:49;11.00;99.90
31809;DHT22;18379;48.208;-1.518;2023-11-21T03:45:51;11.10;99.90
31809;DHT22;18379;48.208;-1.518;2023-11-21T03:50:51;11.30;99.90
31809;DHT22;18379;48.208;-1.518;2023-11-21T03:55:52;11.20;99.90
31809;DHT22;18379;48.208;-1.518;2023-11-21T04:00:52;11.10;99.90
31809;DHT22;18379;48.208;-1.518;2023-11-21T04:05:53;11.00;99.90
31809;DHT22;18379;48.208;-1.518;2023-11-21T04:10:54;11.00;99.90
31809;DHT22;18379;48.208;-1.518;2023-11-21T04:15:55;11.10;99.90
31809;DHT22;18379;48.208;-1.518;2023-11-21T04:20:56;11.10;99.90
31809;DHT22;18379;48.208;-1.518;2023-11-21T04:25:57;11.20;99.90
31809;DHT22;18379;48.208;-1.518;2023-11-21T04:30:58;11.30;99.90
31809;DHT22;18379;48.208;-1.518;2023-11-21T04:35:58;11.30;99.90
31809;DHT22;18379;48.208;-1.518;2023-11-21T04:40:59;11.40;99.90
31809;DHT22;18379;48.208;-1.518;2023-11-21T04:45:59;11.50;99.90
31809;DHT22;18379;48.208;-1.518;2023-11-21T04:51:02;11.60;99.90
31809;DHT22;18379;48.208;-1.518;2023-11-21T04:56:04;11.70;99.90
31809;DHT22;18379;48.208;-1.518;2023-11-21T05:01:07;11.80;99.90
31809;DHT22;18379;48.208;-1.518;2023-11-21T05:06:11;11.70;99.90
31809;DHT22;18379;48.208;-1.518;2023-11-21T05:11:11;11.60;99.90
31809;DHT22;18379;48.208;-1.518;2023-11-21T05:16:12;11.40;99.90
31809;DHT22;18379;48.208;-1.518;2023-11-21T05:21:13;11.60;99.90
31809;DHT22;18379;48.208;-1.518;2023-11-21T05:26:13;11.70;99.90
31809;DHT22;18379;48.208;-1.518;2023-11-21T05:31:14;11.40;99.90
31809;DHT22;18379;48.208;-1.518;2023-11-21T05:36:15;11.20;99.90
31809;DHT22;18379;48.208;-1.518;2023-11-21T05:41:15;11.20;99.90
31809;DHT22;18379;48.208;-1.518;2023-11-21T05:46:16;11.20;99.90
31809;DHT22;18379;48.208;-1.518;2023-11-21T05:51:16;11.10;99.90
31809;DHT22;18379;48.208;-1.518;2023-11-21T05:56:18;11.00;99.90
31809;DHT22;18379;48.208;-1.518;2023-11-21T06:01:18;10.90;99.90
31809;DHT22;18379;48.208;-1.518;2023-11-21T06:06:19;10.80;99.90
31809;DHT22;18379;48.208;-1.518;2023-11-21T06:11:19;10.70;99.90
31809;DHT22;18379;48.208;-1.518;2023-11-21T06:16:20;10.70;99.90
31809;DHT22;18379;48.208;-1.518;2023-11-21T06:21:21;10.70;99.90
31809;DHT22;18379;48.208;-1.518;2023-11-21T06:26:22;10.60;99.90
31809;DHT22;18379;48.208;-1.518;2023-11-21T06:31:22;10.70;99.90
31809;DHT22;18379;48.208;-1.518;2023-11-21T06:36:23;10.60;99.90
31809;DHT22;18379;48.208;-1.518;2023-11-21T06:41:23;10.60;99.90
31809;DHT22;18379;48.208;-1.518;2023-11-21T06:46:24;10.70;99.90
31809;DHT22;18379;48.208;-1.518;2023-11-21T06:51:25;10.70;99.90
31809;DHT22;18379;48.208;-1.518;2023-11-21T06:56:25;10.70;99.90
31809;DHT22;18379;48.208;-1.518;2023-11-21T07:01:26;10.80;99.90
31809;DHT22;18379;48.208;-1.518;2023-11-21T07:06:27;10.60;99.90
31809;DHT22;18379;48.208;-1.518;2023-11-21T07:11:27;10.70;99.90
31809;DHT22;18379;48.208;-1.518;2023-11-21T07:16:28;10.80;99.90
31809;DHT22;18379;48.208;-1.518;2023-11-21T07:21:30;11.00;99.90
31809;DHT22;18379;48.208;-1.518;2023-11-21T07:26:31;10.90;99.90
31809;DHT22;18379;48.208;-1.518;2023-11-21T07:31:32;10.90;99.90
31809;DHT22;18379;48.208;-1.518;2023-11-21T07:36:34;10.90;99.90
31809;DHT22;18379;48.208;-1.518;2023-11-21T07:41:35;10.90;99.90
31809;DHT22;18379;48.208;-1.518;2023-11-21T07:46:35;10.80;99.90
31809;DHT22;18379;48.208;-1.518;2023-11-21T07:51:36;10.80;99.90
31809;DHT22;18379;48.208;-1.518;2023-11-21T07:56:37;11.00;99.90
31809;DHT22;18379;48.208;-1.518;2023-11-21T08:01:38;11.10;99.90
31809;DHT22;18379;48.208;-1.518;2023-11-21T08:06:40;11.10;99.90
31809;DHT22;18379;48.208;-1.518;2023-11-21T08:11:42;11.20;99.90
31809;DHT22;18379;48.208;-1.518;2023-11-21T08:16:42;11.20;99.90
31809;DHT22;18379;48.208;-1.518;2023-11-21T08:21:43;11.20;99.90
31809;DHT22;18379;48.208;-1.518;2023-11-21T08:26:43;11.30;99.90
31809;DHT22;18379;48.208;-1.518;2023-11-21T08:31:44;11.40;99.90
31809;DHT22;18379;48.208;-1.518;2023-11-21T08:36:47;11.50;99.90
31809;DHT22;18379;48.208;-1.518;2023-11-21T08:41:47;11.50;99.90
31809;DHT22;18379;48.208;-1.518;2023-11-21T08:46:48;11.50;99.90
31809;DHT22;18379;48.208;-1.518;2023-11-21T08:51:49;11.70;99.90
31809;DHT22;18379;48.208;-1.518;2023-11-21T08:56:50;11.50;99.90
31809;DHT22;18379;48.208;-1.518;2023-11-21T09:01:51;11.50;99.90
31809;DHT22;18379;48.208;-1.518;2023-11-21T09:06:51;11.50;99.90
31809;DHT22;18379;48.208;-1.518;2023-11-21T09:11:52;11.60;99.90
31809;DHT22;18379;48.208;-1.518;2023-11-21T09:16:53;11.60;99.90
31809;DHT22;18379;48.208;-1.518;2023-11-21T09:21:53;11.60;99.90
31809;DHT22;18379;48.208;-1.518;2023-11-21T09:26:54;11.80;99.90
31809;DHT22;18379;48.208;-1.518;2023-11-21T09:31:55;12.00;99.90
31809;DHT22;18379;48.208;-1.518;2023-11-21T09:36:57;12.40;99.90
31809;DHT22;18379;48.208;-1.518;2023-11-21T09:42:15;12.50;99.90
31809;DHT22;18379;48.208;-1.518;2023-11-21T09:47:17;12.50;99.90
31809;DHT22;18379;48.208;-1.518;2023-11-21T09:52:27;12.40;99.90
31809;DHT22;18379;48.208;-1.518;2023-11-21T09:57:29;12.30;99.90
31809;DHT22;18379;48.208;-1.518;2023-11-21T10:02:30;12.10;99.90
31809;DHT22;18379;48.208;-1.518;2023-11-21T10:07:35;12.00;99.90
31809;DHT22;18379;48.208;-1.518;2023-11-21T10:12:36;11.90;99.90
31809;DHT22;18379;48.208;-1.518;2023-11-21T10:17:38;12.00;99.90
31809;DHT22;18379;48.208;-1.518;2023-11-21T10:22:43;11.90;99.90
31809;DHT22;18379;48.208;-1.518;2023-11-21T10:27:47;12.00;99.90
31809;DHT22;18379;48.208;-1.518;2023-11-21T10:32:48;12.10;99.90
31809;DHT22;18379;48.208;-1.518;2023-11-21T10:37:59;12.10;99.90
31809;DHT22;18379;48.208;-1.518;2023-11-21T10:43:09;12.10;99.90
31809;DHT22;18379;48.208;-1.518;2023-11-21T10:48:12;12.10;99.90
31809;DHT22;18379;48.208;-1.518;2023-11-21T10:53:15;12.10;99.90
31809;DHT22;18379;48.208;-1.518;2023-11-21T10:58:17;12.10;99.90
31809;DHT22;18379;48.208;-1.518;2023-11-21T11:03:18;12.00;99.90
31809;DHT22;18379;48.208;-1.518;2023-11-21T11:08:19;12.20;99.90
31809;DHT22;18379;48.208;-1.518;2023-11-21T11:13:23;12.40;99.90
31809;DHT22;18379;48.208;-1.518;2023-11-21T11:18:24;12.50;99.90
31809;DHT22;18379;48.208;-1.518;2023-11-21T11:23:55;12.60;99.90
31809;DHT22;18379;48.208;-1.518;2023-11-21T11:29:33;12.60;99.90
31809;DHT22;18379;48.208;-1.518;2023-11-21T11:34:47;12.40;99.90
31809;DHT22;18379;48.208;-1.518;2023-11-21T11:39:51;12.20;99.90
31809;DHT22;18379;48.208;-1.518;2023-11-21T11:44:52;12.20;99.90
31809;DHT22;18379;48.208;-1.518;2023-11-21T11:55:00;12.50;99.90
31809;DHT22;18379;48.208;-1.518;2023-11-21T12:00:16;12.80;99.90
31809;DHT22;18379;48.208;-1.518;2023-11-21T12:05:21;13.10;99.90
31809;DHT22;18379;48.208;-1.518;2023-11-21T12:10:31;12.90;99.90
31809;DHT22;18379;48.208;-1.518;2023-11-21T12:15:32;12.80;99.90
31809;DHT22;18379;48.208;-1.518;2023-11-21T12:20:33;12.70;99.90
31809;DHT22;18379;48.208;-1.518;2023-11-21T12:25:39;12.70;99.90
31809;DHT22;18379;48.208;-1.518;2023-11-21T12:30:40;12.70;99.90
31809;DHT22;18379;48.208;-1.518;2023-11-21T12:35:40;12.70;99.90
31809;DHT22;18379;48.208;-1.518;2023-11-21T12:40:44;12.50;99.90
31809;DHT22;18379;48.208;-1.518;2023-11-21T12:45:44;12.40;99.90
31809;DHT22;18379;48.208;-1.518;2023-11-21T12:50:45;12.20;99.90
31809;DHT22;18379;48.208;-1.518;2023-11-21T12:55:49;12.30;99.90
31809;DHT22;18379;48.208;-1.518;2023-11-21T13:00:50;12.30;99.90
31809;DHT22;18379;48.208;-1.518;2023-11-21T13:05:53;12.30;99.90
31809;DHT22;18379;48.208;-1.518;2023-11-21T13:10:56;12.40;99.90
31809;DHT22;18379;48.208;-1.518;2023-11-21T13:16:00;12.40;99.90
31809;DHT22;18379;48.208;-1.518;2023-11-21T13:21:02;12.60;99.90
31809;DHT22;18379;48.208;-1.518;2023-11-21T13:26:18;12.60;99.90
31809;DHT22;18379;48.208;-1.518;2023-11-21T13:31:21;12.50;99.90
31809;DHT22;18379;48.208;-1.518;2023-11-21T13:36:23;12.50;99.90
31809;DHT22;18379;48.208;-1.518;2023-11-21T13:41:24;12.60;99.90
31809;DHT22;18379;48.208;-1.518;2023-11-21T13:46:30;12.50;99.90
31809;DHT22;18379;48.208;-1.518;2023-11-21T13:51:37;12.40;99.90
31809;DHT22;18379;48.208;-1.518;2023-11-21T13:56:43;12.30;99.90
31809;DHT22;18379;48.208;-1.518;2023-11-21T14:01:46;12.20;99.90
31809;DHT22;18379;48.208;-1.518;2023-11-21T14:06:57;12.30;99.90
31809;DHT22;18379;48.208;-1.518;2023-11-21T14:12:01;12.30;99.90
31809;DHT22;18379;48.208;-1.518;2023-11-21T14:17:06;12.20;99.90
31809;DHT22;18379;48.208;-1.518;2023-11-21T14:22:07;12.20;99.90
31809;DHT22;18379;48.208;-1.518;2023-11-21T14:27:10;12.10;99.90
31809;DHT22;18379;48.208;-1.518;2023-11-21T14:32:11;12.20;99.90
31809;DHT22;18379;48.208;-1.518;2023-11-21T14:37:12;12.20;99.90
31809;DHT22;18379;48.208;-1.518;2023-11-21T14:42:14;12.10;99.90
31809;DHT22;18379;48.208;-1.518;2023-11-21T14:47:15;12.10;99.90
31809;DHT22;18379;48.208;-1.518;2023-11-21T14:52:16;12.00;99.90
31809;DHT22;18379;48.208;-1.518;2023-11-21T14:57:38;11.90;99.90
31809;DHT22;18379;48.208;-1.518;2023-11-21T15:02:38;12.00;99.90
31809;DHT22;18379;48.208;-1.518;2023-11-21T15:07:50;12.00;99.90
31809;DHT22;18379;48.208;-1.518;2023-11-21T15:12:55;11.80;99.90
31809;DHT22;18379;48.208;-1.518;2023-11-21T15:17:58;11.70;99.90
31809;DHT22;18379;48.208;-1.518;2023-11-21T15:22:58;11.70;99.90
31809;DHT22;18379;48.208;-1.518;2023-11-21T15:28:00;11.60;99.90
31809;DHT22;18379;48.208;-1.518;2023-11-21T15:33:01;11.60;99.90
31809;DHT22;18379;48.208;-1.518;2023-11-21T15:38:04;11.70;99.90
31809;DHT22;18379;48.208;-1.518;2023-11-21T15:43:04;11.70;99.90
31809;DHT22;18379;48.208;-1.518;2023-11-21T15:48:07;11.70;99.90
31809;DHT22;18379;48.208;-1.518;2023-11-21T15:53:10;11.60;99.90
31809;DHT22;18379;48.208;-1.518;2023-11-21T15:58:10;11.40;99.90
31809;DHT22;18379;48.208;-1.518;2023-11-21T16:03:11;11.40;99.90
31809;DHT22;18379;48.208;-1.518;2023-11-21T16:08:12;11.20;99.90
31809;DHT22;18379;48.208;-1.518;2023-11-21T16:13:13;11.10;99.90
31809;DHT22;18379;48.208;-1.518;2023-11-21T16:18:14;11.10;99.90
31809;DHT22;18379;48.208;-1.518;2023-11-21T16:23:14;11.10;99.90
31809;DHT22;18379;48.208;-1.518;2023-11-21T16:28:16;11.10;99.90
31809;DHT22;18379;48.208;-1.518;2023-11-21T16:33:18;11.10;99.90
31809;DHT22;18379;48.208;-1.518;2023-11-21T16:38:20;11.10;99.90
31809;DHT22;18379;48.208;-1.518;2023-11-21T16:43:20;11.10;99.90
31809;DHT22;18379;48.208;-1.518;2023-11-21T16:48:21;11.10;99.90
31809;DHT22;18379;48.208;-1.518;2023-11-21T16:53:22;11.10;99.90
31809;DHT22;18379;48.208;-1.518;2023-11-21T16:58:22;11.00;99.90
31809;DHT22;18379;48.208;-1.518;2023-11-21T17:03:23;11.00;99.90
31809;DHT22;18379;48.208;-1.518;2023-11-21T17:08:25;10.90;99.90
31809;DHT22;18379;48.208;-1.518;2023-11-21T17:13:25;11.00;99.90
31809;DHT22;18379;48.208;-1.518;2023-11-21T17:18:26;10.90;99.90
31809;DHT22;18379;48.208;-1.518;2023-11-21T17:23:27;10.90;99.90
31809;DHT22;18379;48.208;-1.518;2023-11-21T17:28:30;10.80;99.90
31809;DHT22;18379;48.208;-1.518;2023-11-21T17:33:31;10.90;99.90
31809;DHT22;18379;48.208;-1.518;2023-11-21T17:38:42;10.80;99.90
31809;DHT22;18379;48.208;-1.518;2023-11-21T17:43:42;10.90;99.90
31809;DHT22;18379;48.208;-1.518;2023-11-21T17:48:44;10.80;99.90
31809;DHT22;18379;48.208;-1.518;2023-11-21T17:53:45;10.70;99.90
31809;DHT22;18379;48.208;-1.518;2023-11-21T17:58:46;10.80;99.90
31809;DHT22;18379;48.208;-1.518;2023-11-21T18:03:47;10.80;99.90
31809;DHT22;18379;48.208;-1.518;2023-11-21T18:08:49;10.80;99.90
31809;DHT22;18379;48.208;-1.518;2023-11-21T18:13:51;10.80;99.90
31809;DHT22;18379;48.208;-1.518;2023-11-21T18:18:51;10.80;99.90
31809;DHT22;18379;48.208;-1.518;2023-11-21T18:23:52;10.80;99.90
31809;DHT22;18379;48.208;-1.518;2023-11-21T18:28:53;10.80;99.90
31809;DHT22;18379;48.208;-1.518;2023-11-21T18:33:54;10.80;99.90
31809;DHT22;18379;48.208;-1.518;2023-11-21T18:38:54;10.80;99.90
31809;DHT22;18379;48.208;-1.518;2023-11-21T18:43:55;10.80;99.90
31809;DHT22;18379;48.208;-1.518;2023-11-21T18:48:55;10.80;99.90
31809;DHT22;18379;48.208;-1.518;2023-11-21T18:53:58;10.80;99.90
31809;DHT22;18379;48.208;-1.518;2023-11-21T18:58:58;10.80;99.90
31809;DHT22;18379;48.208;-1.518;2023-11-21T19:03:59;10.70;99.90
31809;DHT22;18379;48.208;-1.518;2023-11-21T19:09:00;10.70;99.90
31809;DHT22;18379;48.208;-1.518;2023-11-21T19:14:01;10.70;99.90
31809;DHT22;18379;48.208;-1.518;2023-11-21T19:19:02;10.70;99.90
31809;DHT22;18379;48.208;-1.518;2023-11-21T19:24:04;10.70;99.90
31809;DHT22;18379;48.208;-1.518;2023-11-21T19:29:05;10.70;99.90
31809;DHT22;18379;48.208;-1.518;2023-11-21T19:34:06;10.70;99.90
31809;DHT22;18379;48.208;-1.518;2023-11-21T19:39:06;10.80;99.90
31809;DHT22;18379;48.208;-1.518;2023-11-21T19:44:08;10.80;99.90
31809;DHT22;18379;48.208;-1.518;2023-11-21T19:49:09;10.90;99.90
31809;DHT22;18379;48.208;-1.518;2023-11-21T19:54:10;10.90;99.90
31809;DHT22;18379;48.208;-1.518;2023-11-21T19:59:10;10.90;99.90
31809;DHT22;18379;48.208;-1.518;2023-11-21T20:04:11;10.90;99.90
31809;DHT22;18379;48.208;-1.518;2023-11-21T20:09:12;11.00;99.90
31809;DHT22;18379;48.208;-1.518;2023-11-21T20:14:12;10.90;99.90
31809;DHT22;18379;48.208;-1.518;2023-11-21T20:19:13;11.00;99.90
31809;DHT22;18379;48.208;-1.518;2023-11-21T20:24:13;10.90;99.90
31809;DHT22;18379;48.208;-1.518;2023-11-21T20:29:14;10.90;99.90
31809;DHT22;18379;48.208;-1.518;2023-11-21T20:34:15;10.90;99.90
31809;DHT22;18379;48.208;-1.518;2023-11-21T20:39:16;10.90;99.90
31809;DHT22;18379;48.208;-1.518;2023-11-21T20:44:16;10.90;99.90
31809;DHT22;18379;48.208;-1.518;2023-11-21T20:49:17;10.90;99.90
31809;DHT22;18379;48.208;-1.518;2023-11-21T20:54:18;11.00;99.90
31809;DHT22;18379;48.208;-1.518;2023-11-21T20:59:18;11.00;99.90
31809;DHT22;18379;48.208;-1.518;2023-11-21T21:04:19;11.00;99.90
31809;DHT22;18379;48.208;-1.518;2023-11-21T21:09:21;11.10;99.90
31809;DHT22;18379;48.208;-1.518;2023-11-21T21:14:21;11.00;99.90
31809;DHT22;18379;48.208;-1.518;2023-11-21T21:19:24;11.00;99.90
31809;DHT22;18379;48.208;-1.518;2023-11-21T21:24:28;10.90;99.90
31809;DHT22;18379;48.208;-1.518;2023-11-21T21:29:28;10.90;99.90
31809;DHT22;18379;48.208;-1.518;2023-11-21T21:34:29;10.90;99.90
31809;DHT22;18379;48.208;-1.518;2023-11-21T21:39:30;11.00;99.90
31809;DHT22;18379;48.208;-1.518;2023-11-21T21:44:30;10.90;99.90
31809;DHT22;18379;48.208;-1.518;2023-11-21T21:49:33;10.90;99.90
31809;DHT22;18379;48.208;-1.518;2023-11-21T21:54:34;10.80;99.90
31809;DHT22;18379;48.208;-1.518;2023-11-21T21:59:35;10.70;99.90
31809;DHT22;18379;48.208;-1.518;2023-11-21T22:04:37;10.80;99.90
31809;DHT22;18379;48.208;-1.518;2023-11-21T22:09:40;10.80;99.90
31809;DHT22;18379;48.208;-1.518;2023-11-21T22:14:40;10.80;99.90
31809;DHT22;18379;48.208;-1.518;2023-11-21T22:19:41;10.90;99.90
31809;DHT22;18379;48.208;-1.518;2023-11-21T22:24:42;10.80;99.90
31809;DHT22;18379;48.208;-1.518;2023-11-21T22:29:42;10.70;99.90
31809;DHT22;18379;48.208;-1.518;2023-11-21T22:34:43;10.80;99.90
31809;DHT22;18379;48.208;-1.518;2023-11-21T22:39:44;10.80;99.90
31809;DHT22;18379;48.208;-1.518;2023-11-21T22:44:44;10.80;99.90
31809;DHT22;18379;48.208;-1.518;2023-11-21T22:49:45;10.80;99.90
31809;DHT22;18379;48.208;-1.518;2023-11-21T22:54:45;10.80;99.90
31809;DHT22;18379;48.208;-1.518;2023-11-21T22:59:46;10.80;99.90
31809;DHT22;18379;48.208;-1.518;2023-11-21T23:04:46;10.80;99.90
31809;DHT22;18379;48.208;-1.518;2023-11-21T23:09:47;10.80;99.90
31809;DHT22;18379;48.208;-1.518;2023-11-21T23:14:48;10.90;99.90
31809;DHT22;18379;48.208;-1.518;2023-11-21T23:19:48;10.80;99.90
31809;DHT22;18379;48.208;-1.518;2023-11-21T23:24:49;10.80;99.90
31809;DHT22;18379;48.208;-1.518;2023-11-21T23:29:50;10.70;99.90
31809;DHT22;18379;48.208;-1.518;2023-11-21T23:34:54;10.70;99.90
31809;DHT22;18379;48.208;-1.518;2023-11-21T23:39:54;10.70;99.90
31809;DHT22;18379;48.208;-1.518;2023-11-21T23:44:55;10.70;99.90
31809;DHT22;18379;48.208;-1.518;2023-11-21T23:49:56;10.70;99.90
31809;DHT22;18379;48.208;-1.518;2023-11-21T23:54:58;10.60;99.90
31809;DHT22;18379;48.208;-1.518;2023-11-21T23:59:59;10.60;99.90
